createdAt,value
2023-01-31T02:20:44.838Z,14.67
2023-01-31T02:23:31.956Z,17.13
2023-01-31T02:26:33.547Z,9.47
2023-01-31T02:29:15.710Z,12.00
2023-01-31T02:31:58.835Z,17.00
2023-01-31T02:34:54.021Z,15.30
2023-01-31T02:37:32.353Z,15.30
2023-01-31T02:40:07.481Z,19.13
2023-01-31T02:43:00.003Z,11.70
2023-01-31T02:45:41.199Z,14.90
2023-01-31T02:48:32.278Z,17.97
2023-01-31T02:55:49.856Z,11.87
2023-01-31T02:58:20.165Z,9.97
2023-01-31T03:00:49.579Z,14.03
2023-01-31T03:03:25.334Z,14.03
2023-01-31T03:06:13.528Z,9.60
2023-01-31T03:08:44.820Z,12.67
2023-01-31T03:11:12.996Z,15.07
2023-01-31T03:13:50.382Z,22.83
2023-01-31T03:16:50.187Z,15.70
2023-01-31T03:19:32.891Z,13.60
2023-01-31T03:22:10.640Z,20.57
2023-01-31T03:24:40.453Z,17.53
2023-01-31T03:27:08.077Z,9.83
2023-01-31T03:29:38.383Z,12.30
2023-01-31T03:32:18.740Z,13.27
2023-01-31T03:34:47.321Z,13.17
2023-01-31T03:37:31.711Z,10.57
2023-01-31T03:40:27.354Z,13.37
2023-01-31T03:43:03.869Z,12.23
2023-01-31T03:45:58.200Z,14.63
2023-01-31T03:48:33.116Z,12.10
2023-01-31T03:51:04.792Z,9.33
2023-01-31T03:53:39.762Z,11.83
2023-01-31T03:56:18.530Z,13.50
2023-01-31T03:58:54.551Z,10.30
2023-01-31T04:01:25.242Z,14.63
2023-01-31T04:03:59.454Z,16.47
2023-01-31T04:06:27.674Z,10.97
2023-01-31T04:08:55.655Z,15.07
2023-01-31T04:11:28.084Z,14.93
2023-01-31T04:13:55.541Z,9.57
2023-01-31T04:16:23.563Z,12.03
2023-01-31T04:18:51.736Z,17.63
2023-01-31T04:21:19.099Z,15.27
2023-01-31T04:23:46.527Z,17.73
2023-01-31T04:26:13.925Z,14.60
2023-01-31T04:28:42.045Z,12.20
2023-01-31T04:31:10.012Z,10.80
2023-01-31T04:33:37.425Z,20.37
2023-01-31T04:36:13.132Z,11.43
2023-01-31T04:38:44.166Z,10.30
2023-01-31T04:41:12.806Z,12.67
2023-01-31T04:43:40.769Z,12.13
2023-01-31T04:46:08.111Z,12.50
2023-01-31T04:48:35.807Z,15.13
2023-01-31T04:51:03.227Z,9.23
2023-01-31T04:53:30.603Z,10.47
2023-01-31T04:55:57.947Z,6.50
2023-01-31T04:58:25.330Z,14.63
2023-01-31T05:00:54.422Z,7.97
2023-01-31T05:03:28.685Z,18.17
2023-01-31T05:05:56.899Z,8.83
2023-01-31T05:08:24.208Z,14.23
2023-01-31T05:11:03.096Z,13.03
2023-01-31T05:13:32.799Z,12.13
2023-01-31T05:16:00.318Z,17.07
2023-01-31T05:18:27.795Z,12.70
2023-01-31T05:20:55.135Z,12.00
2023-01-31T05:23:22.545Z,11.07
2023-01-31T05:25:50.690Z,12.97
2023-01-31T05:28:18.738Z,16.17
2023-01-31T05:30:46.771Z,11.50
2023-01-31T05:33:14.434Z,14.10
2023-01-31T05:35:42.589Z,10.20
2023-01-31T05:38:10.333Z,15.23
2023-01-31T05:40:38.067Z,12.60
2023-01-31T05:43:05.503Z,13.97
2023-01-31T05:45:33.024Z,15.40
2023-01-31T05:48:01.058Z,14.30
2023-01-31T05:50:28.707Z,9.40
2023-01-31T05:53:01.009Z,9.10
2023-01-31T05:55:28.874Z,10.83
2023-01-31T05:57:56.572Z,14.00
2023-01-31T06:00:24.510Z,10.60
2023-01-31T06:02:52.335Z,11.40
2023-01-31T06:05:20.071Z,13.10
2023-01-31T06:07:47.561Z,11.07
2023-01-31T06:10:15.492Z,6.90
2023-01-31T06:12:43.122Z,9.07
2023-01-31T06:15:10.969Z,10.93
2023-01-31T06:17:38.408Z,8.53
2023-01-31T06:20:07.280Z,8.93
2023-01-31T06:22:35.198Z,11.27
2023-01-31T06:25:04.650Z,18.83
2023-01-31T06:27:37.151Z,16.60
2023-01-31T06:30:07.834Z,9.00
2023-01-31T06:32:37.491Z,13.17
2023-01-31T06:35:13.731Z,8.60
2023-01-31T06:37:48.536Z,7.87
2023-01-31T06:40:25.536Z,13.43
2023-01-31T06:42:57.725Z,14.57
2023-01-31T06:45:27.105Z,10.03
2023-01-31T06:47:55.941Z,10.23
2023-01-31T06:50:23.445Z,9.03
2023-01-31T06:52:54.399Z,10.10
2023-01-31T06:55:26.584Z,9.67
2023-01-31T06:57:56.259Z,13.70
2023-01-31T07:00:25.790Z,14.83
2023-01-31T07:02:56.847Z,13.00
2023-01-31T07:05:28.960Z,11.40
2023-01-31T07:08:03.734Z,10.60
2023-01-31T07:15:07.913Z,14.67
2023-01-31T07:20:47.906Z,15.93
2023-01-31T07:23:15.847Z,18.77
2023-01-31T07:26:11.564Z,12.97
2023-01-31T07:28:42.247Z,12.37
2023-01-31T07:31:13.193Z,10.70
2023-01-31T07:33:40.789Z,10.77
2023-01-31T07:36:11.788Z,17.93
2023-01-31T07:38:39.478Z,17.27
2023-01-31T07:41:08.469Z,12.80
2023-01-31T07:43:35.997Z,12.57
2023-01-31T07:46:09.219Z,9.73
2023-01-31T07:48:36.904Z,17.67
2023-01-31T07:51:05.341Z,8.87
2023-01-31T07:53:35.564Z,12.70
2023-01-31T07:56:12.929Z,11.87
2023-01-31T07:58:41.513Z,12.57
2023-01-31T08:01:36.582Z,19.70
2023-01-31T08:04:19.936Z,16.90
2023-01-31T08:06:50.719Z,11.73
2023-01-31T08:09:18.141Z,17.63
2023-01-31T08:11:46.080Z,11.03
2023-01-31T08:14:13.710Z,11.63
2023-01-31T08:16:41.265Z,13.87
2023-01-31T08:19:08.963Z,17.00
2023-01-31T08:21:36.298Z,8.27
2023-01-31T08:24:03.864Z,12.43
2023-01-31T08:26:31.741Z,10.97
2023-01-31T08:29:00.085Z,9.07
2023-01-31T08:31:28.301Z,17.00
2023-01-31T08:33:57.319Z,12.93
2023-01-31T08:36:31.931Z,7.70
2023-01-31T08:39:00.201Z,12.37
2023-01-31T08:41:30.355Z,12.33
2023-01-31T08:44:50.289Z,8.87
2023-01-31T08:47:17.585Z,13.40
2023-01-31T08:49:44.908Z,18.87
2023-01-31T08:52:12.273Z,17.57
2023-01-31T08:54:39.684Z,17.03
2023-01-31T08:57:07.298Z,10.57
2023-01-31T08:59:34.720Z,18.37
2023-01-31T09:02:02.610Z,11.60
2023-01-31T09:04:30.127Z,11.30
2023-01-31T09:06:57.655Z,18.47
2023-01-31T09:09:27.426Z,16.40
2023-01-31T09:13:17.706Z,17.73
2023-01-31T09:15:45.451Z,15.93
2023-01-31T09:18:13.032Z,18.80
2023-01-31T09:20:40.361Z,18.23
2023-01-31T09:23:07.733Z,12.87
2023-01-31T09:25:46.689Z,20.63
2023-01-31T09:28:15.347Z,24.00
2023-01-31T09:30:44.779Z,24.70
2023-01-31T09:33:12.110Z,13.87
2023-01-31T09:35:39.622Z,17.33
2023-01-31T09:38:06.948Z,16.57
2023-01-31T09:40:38.581Z,14.77
2023-01-31T09:43:06.819Z,15.93
2023-01-31T09:45:37.854Z,13.60
2023-01-31T09:48:07.167Z,15.33
2023-01-31T09:50:45.993Z,16.90
2023-01-31T09:53:15.140Z,18.27
2023-01-31T09:55:56.481Z,14.43
2023-01-31T09:59:04.551Z,16.70
2023-01-31T10:01:44.673Z,17.27
2023-01-31T10:04:36.404Z,14.67
2023-01-31T10:07:24.775Z,17.23
2023-01-31T10:10:04.864Z,20.17
2023-01-31T10:12:48.868Z,13.73
2023-01-31T10:15:47.952Z,13.77
2023-01-31T10:18:27.971Z,13.87
2023-01-31T10:21:03.109Z,19.67
2023-01-31T10:23:54.170Z,11.23
2023-01-31T10:26:29.569Z,12.63
2023-01-31T10:29:21.699Z,13.43
2023-01-31T10:31:57.451Z,15.83
2023-01-31T10:34:27.150Z,15.93
2023-01-31T10:37:15.258Z,15.27
2023-01-31T10:39:50.205Z,17.60
2023-01-31T10:42:31.720Z,15.03
2023-01-31T10:45:23.598Z,13.53
2023-01-31T10:47:56.083Z,13.27
2023-01-31T10:50:47.574Z,16.57
2023-01-31T10:53:55.119Z,18.53
2023-01-31T10:56:35.795Z,18.47
2023-01-31T10:59:12.733Z,15.40
2023-01-31T11:01:40.087Z,20.40
2023-01-31T11:04:41.575Z,16.07
2023-01-31T11:07:10.041Z,21.77
2023-01-31T11:09:41.391Z,13.90
2023-01-31T11:12:09.123Z,17.50
2023-01-31T11:14:36.932Z,17.40
2023-01-31T11:17:14.974Z,18.43
2023-01-31T11:19:46.763Z,16.37
2023-01-31T11:22:32.922Z,15.23
2023-01-31T11:25:04.262Z,15.60
2023-01-31T11:27:38.827Z,12.63
2023-01-31T11:30:19.872Z,13.57
2023-01-31T11:32:49.058Z,14.10
2023-01-31T11:35:16.452Z,12.90
2023-01-31T11:37:56.640Z,15.37
2023-01-31T11:40:40.985Z,11.67
2023-01-31T11:43:19.755Z,16.23
2023-01-31T11:45:59.119Z,14.90
2023-01-31T11:48:43.933Z,10.60
2023-01-31T11:51:31.129Z,14.53
2023-01-31T11:53:58.564Z,11.77
2023-01-31T11:56:34.288Z,13.70
2023-01-31T11:59:06.862Z,11.50
2023-01-31T12:01:43.981Z,15.17
2023-01-31T12:04:23.362Z,9.63
2023-01-31T12:07:01.931Z,9.73
2023-01-31T12:09:40.992Z,11.77
2023-01-31T12:12:25.508Z,10.53
2023-01-31T12:14:59.357Z,14.47
2023-01-31T12:17:30.281Z,12.87
2023-01-31T12:20:28.758Z,11.57
2023-01-31T12:23:17.901Z,13.20
2023-01-31T12:25:54.388Z,10.23
2023-01-31T12:28:21.678Z,14.93
2023-01-31T12:31:09.511Z,10.63
2023-01-31T12:33:48.053Z,10.57
2023-01-31T12:36:39.692Z,13.50
2023-01-31T12:39:36.072Z,17.47
2023-01-31T12:42:17.087Z,11.53
2023-01-31T12:45:06.572Z,10.80
2023-01-31T12:48:07.698Z,11.17
2023-01-31T12:51:00.927Z,11.97
2023-01-31T12:53:33.664Z,11.03
2023-01-31T12:56:30.860Z,12.60
2023-01-31T12:59:22.323Z,13.67
2023-01-31T13:02:13.025Z,13.87
2023-01-31T13:04:48.685Z,11.43
2023-01-31T13:07:34.731Z,10.57
2023-01-31T13:10:06.038Z,10.13
2023-01-31T13:12:35.732Z,12.00
2023-01-31T13:15:07.502Z,12.23
2023-01-31T13:17:40.712Z,16.83
2023-01-31T13:20:11.253Z,14.87
2023-01-31T13:22:49.921Z,15.17
2023-01-31T13:25:32.976Z,13.17
2023-01-31T13:28:01.402Z,13.73
2023-01-31T13:30:56.019Z,16.17
2023-01-31T13:33:23.654Z,16.00
2023-01-31T13:36:12.108Z,16.57
2023-01-31T13:38:43.236Z,13.60
2023-01-31T13:41:31.143Z,11.80
2023-01-31T13:44:00.125Z,12.47
2023-01-31T13:46:33.915Z,19.43
2023-01-31T13:49:24.837Z,16.13
2023-01-31T13:52:09.365Z,13.33
2023-01-31T13:54:44.768Z,13.93
2023-01-31T13:57:46.531Z,17.87
2023-01-31T14:00:41.169Z,12.33
2023-01-31T14:03:11.715Z,14.83
2023-01-31T14:05:44.601Z,12.00
2023-01-31T14:08:27.490Z,14.27
2023-01-31T14:11:03.308Z,12.97
2023-01-31T14:13:33.880Z,10.37
2023-01-31T14:16:02.467Z,10.50
2023-01-31T14:18:45.014Z,15.80
2023-01-31T14:21:31.349Z,18.43
2023-01-31T14:24:00.935Z,12.90
2023-01-31T14:26:43.466Z,9.57
2023-01-31T14:29:26.393Z,11.63
2023-01-31T14:31:56.627Z,17.87
2023-01-31T14:34:28.990Z,14.50
2023-01-31T14:37:19.115Z,12.07
2023-01-31T14:40:01.624Z,21.00
2023-01-31T14:42:44.967Z,14.27
2023-01-31T14:45:23.631Z,11.30
2023-01-31T14:48:26.687Z,15.87
2023-01-31T14:50:54.097Z,13.73
2023-01-31T14:53:48.079Z,14.10
2023-01-31T14:56:32.914Z,17.73
2023-01-31T14:59:01.102Z,12.90
2023-01-31T15:02:00.913Z,10.83
2023-01-31T15:04:29.136Z,11.80
2023-01-31T15:06:57.502Z,12.47
2023-01-31T15:09:30.199Z,12.57
2023-01-31T15:11:58.228Z,13.57
2023-01-31T15:14:45.016Z,14.57
2023-01-31T15:17:40.444Z,17.63
2023-01-31T15:20:59.473Z,14.90
2023-01-31T15:23:30.159Z,16.30
2023-01-31T15:25:59.635Z,17.40
2023-01-31T15:28:30.918Z,13.93
2023-01-31T15:31:02.590Z,23.83
2023-01-31T15:33:41.354Z,10.93
2023-01-31T15:36:27.635Z,13.40
2023-01-31T15:39:04.414Z,12.30
2023-01-31T15:41:40.650Z,15.73
2023-01-31T15:44:18.449Z,17.33
2023-01-31T15:46:48.611Z,18.63
2023-01-31T15:49:39.258Z,15.47
2023-01-31T15:52:22.611Z,11.80
2023-01-31T15:55:02.870Z,12.70
2023-01-31T15:57:40.875Z,13.60
2023-01-31T16:00:17.374Z,16.37
2023-01-31T16:02:46.871Z,16.07
2023-01-31T16:05:21.487Z,21.37
2023-01-31T16:07:54.892Z,14.33
2023-01-31T16:10:23.319Z,20.03
2023-01-31T16:12:53.105Z,17.37
2023-01-31T16:15:26.274Z,12.13
2023-01-31T16:17:57.140Z,12.80
2023-01-31T16:20:43.547Z,13.07
2023-01-31T16:23:37.703Z,17.60
2023-01-31T16:26:13.806Z,11.27
2023-01-31T16:28:57.890Z,14.60
2023-01-31T16:31:31.191Z,14.03
2023-01-31T16:34:27.370Z,9.70
2023-01-31T16:37:06.259Z,10.83
2023-01-31T16:39:46.934Z,13.97
2023-01-31T16:46:45.394Z,8.97
2023-01-31T16:49:31.502Z,11.23
2023-01-31T16:52:24.957Z,13.83
2023-01-31T16:55:23.770Z,10.70
2023-01-31T16:57:52.227Z,14.50
2023-01-31T17:00:25.703Z,10.37
2023-01-31T17:03:20.096Z,13.40
2023-01-31T17:05:48.113Z,11.00
2023-01-31T17:08:20.989Z,13.83
2023-01-31T17:10:49.466Z,8.87
2023-01-31T17:13:23.848Z,8.13
2023-01-31T17:42:46.148Z,6.57
2023-01-31T17:45:38.729Z,5.80
2023-01-31T18:08:01.174Z,5.23
2023-01-31T18:10:28.912Z,6.27
2023-01-31T18:12:56.992Z,6.27
2023-01-31T18:15:25.232Z,4.70
2023-01-31T18:17:55.051Z,5.00
2023-01-31T18:20:23.427Z,4.90
2023-01-31T18:22:52.522Z,5.40
2023-01-31T18:25:20.546Z,4.80
2023-01-31T18:27:49.769Z,4.80
2023-01-31T18:30:17.978Z,4.57
2023-01-31T18:32:46.753Z,4.73
2023-01-31T18:35:14.877Z,5.20
2023-01-31T18:37:43.753Z,5.20
2023-01-31T18:40:12.605Z,4.70
2023-01-31T18:42:40.667Z,4.27
2023-01-31T18:45:10.683Z,4.40
2023-01-31T18:47:39.153Z,4.60
2023-01-31T18:50:09.429Z,4.27
2023-01-31T18:52:42.591Z,4.20
2023-01-31T18:55:11.477Z,4.57
2023-01-31T18:57:47.945Z,4.37
2023-01-31T19:00:16.691Z,4.50
2023-01-31T19:03:11.163Z,4.07
2023-01-31T19:05:38.889Z,4.13
2023-01-31T19:08:08.360Z,4.07
2023-01-31T19:10:35.842Z,4.50
2023-01-31T19:13:03.288Z,4.73
2023-01-31T19:15:30.650Z,4.30
2023-01-31T19:17:59.680Z,4.27
2023-01-31T19:24:58.592Z,4.10
2023-01-31T19:27:27.006Z,3.53
2023-01-31T19:29:57.395Z,4.37
2023-01-31T19:32:25.418Z,4.80
2023-01-31T19:34:54.216Z,4.30
2023-01-31T19:37:28.992Z,4.30
2023-01-31T19:40:36.375Z,4.40
2023-01-31T19:43:05.966Z,4.67
2023-01-31T19:45:33.507Z,6.27
2023-01-31T19:48:01.431Z,4.67
2023-01-31T19:50:33.192Z,4.30
2023-01-31T19:53:02.588Z,4.00
2023-01-31T19:55:33.182Z,4.10
2023-01-31T19:58:00.923Z,4.50
2023-01-31T20:00:28.860Z,4.20
2023-01-31T20:02:56.593Z,3.97
2023-01-31T20:05:24.375Z,4.80
2023-01-31T20:07:53.828Z,3.97
2023-01-31T20:10:22.064Z,5.00
2023-01-31T20:12:49.809Z,4.50
2023-01-31T20:15:17.383Z,4.20
2023-01-31T20:17:46.047Z,4.67
2023-01-31T20:20:16.278Z,3.70
2023-01-31T20:22:45.964Z,4.50
2023-01-31T20:25:14.156Z,4.53
2023-01-31T20:27:42.004Z,4.40
2023-01-31T20:30:12.730Z,4.23
2023-01-31T20:32:40.245Z,4.07
2023-01-31T20:35:10.424Z,4.73
2023-01-31T20:37:50.236Z,3.97
2023-01-31T20:40:23.864Z,4.27
2023-01-31T20:42:52.102Z,4.03
2023-01-31T20:45:20.487Z,4.07
2023-01-31T20:48:23.120Z,3.97
2023-01-31T20:50:55.802Z,4.60
2023-01-31T20:53:25.319Z,4.50
2023-01-31T20:55:56.786Z,4.10
2023-01-31T20:58:26.328Z,4.10
2023-01-31T21:00:57.968Z,4.07
2023-01-31T21:03:26.946Z,4.50
2023-01-31T21:06:01.193Z,4.50
2023-01-31T21:08:44.161Z,4.67
2023-01-31T21:14:27.517Z,5.20
2023-01-31T21:17:12.759Z,5.07
2023-01-31T21:19:41.481Z,4.50
2023-01-31T21:22:10.138Z,4.77
2023-01-31T21:24:43.994Z,4.87
2023-01-31T21:27:13.105Z,5.00
2023-01-31T21:29:50.705Z,5.30
2023-01-31T21:38:45.264Z,4.03
2023-01-31T21:41:33.782Z,4.40
2023-01-31T21:44:04.450Z,4.87
2023-01-31T21:46:33.223Z,4.60
2023-01-31T21:49:03.818Z,4.83
2023-01-31T21:51:35.739Z,5.03
2023-01-31T21:54:22.543Z,5.00
2023-01-31T21:56:52.113Z,4.87
2023-01-31T21:59:21.570Z,4.73
2023-01-31T22:02:00.589Z,5.30
2023-01-31T22:05:51.391Z,4.80
2023-01-31T22:08:27.586Z,5.23
2023-01-31T22:11:10.061Z,5.53
2023-01-31T22:13:39.216Z,5.03
2023-01-31T22:16:13.286Z,4.53
2023-01-31T22:18:58.652Z,4.90
2023-01-31T22:21:33.511Z,4.57
2023-01-31T22:25:20.146Z,4.80
2023-01-31T22:27:52.034Z,4.67
2023-01-31T22:30:21.986Z,4.63
2023-01-31T22:32:50.603Z,4.70
2023-01-31T22:35:19.600Z,5.50
2023-01-31T22:37:49.001Z,5.43
2023-01-31T22:40:19.430Z,5.53
2023-01-31T22:42:53.132Z,5.13
2023-01-31T22:45:25.957Z,4.70
2023-01-31T22:48:28.076Z,3.97
2023-01-31T22:51:04.040Z,4.67
2023-01-31T22:53:36.316Z,4.40
2023-01-31T22:56:09.010Z,4.47
2023-01-31T22:58:42.937Z,4.83
2023-01-31T23:01:26.082Z,4.80
2023-01-31T23:05:22.260Z,7.00
2023-01-31T23:08:03.893Z,4.20
2023-01-31T23:10:37.936Z,4.43
2023-01-31T23:13:07.970Z,5.10
2023-01-31T23:15:58.795Z,4.57
2023-01-31T23:18:32.457Z,5.30
2023-01-31T23:24:00.390Z,5.13
2023-01-31T23:26:34.740Z,4.50
2023-01-31T23:29:03.549Z,5.00
2023-01-31T23:31:35.545Z,4.50
2023-01-31T23:34:36.272Z,4.80
2023-01-31T23:37:10.477Z,5.13
2023-01-31T23:39:39.347Z,5.10
2023-01-31T23:42:07.781Z,5.40
2023-01-31T23:44:36.332Z,5.10
2023-01-31T23:47:05.449Z,5.10
2023-01-31T23:49:33.976Z,4.70
2023-01-31T23:52:02.573Z,5.47
2023-01-31T23:54:31.534Z,5.03
2023-01-31T23:57:01.678Z,5.23
2023-01-31T23:59:31.618Z,5.17
